GTS weather

Granite Downs Airport
South Australia, Australia

Public forecast

Using degrees Celsius for public forecast. Weather courtesy of forecast.io.

METAR (pilot weather report)

Closest report is Ayers Rock Connellan Airport, 177.0 nm (327.8 km) NW. Retrieved 2019/03/22 13:00 UTC (50 minutes ago):

YAYE 221300Z AUTO 07008KT 9999 // NCD 32/02 Q1009

TAF (pilot weather forecast)

Closest forecast is Alice Springs Airport, 189.3 nm (350.6 km) N. Retrieved 2019/03/22 12:00 UTC (2 hours ago):

TAF YBAS 221106Z 2212/2312 10006KT CAVOK FM221600 30005KT CAVOK FM222300 07012KT CAVOK